createdAt,value
2018-05-10T00:00:09.554Z,7.90
2018-05-10T00:02:35.947Z,8.37
2018-05-10T00:05:02.405Z,6.90
2018-05-10T00:07:28.801Z,5.77
2018-05-10T00:09:55.925Z,7.17
2018-05-10T00:12:23.101Z,4.50
2018-05-10T00:14:49.536Z,7.40
2018-05-10T00:17:15.956Z,5.10
2018-05-10T00:19:42.400Z,9.27
2018-05-10T00:22:08.811Z,14.23
2018-05-10T00:24:35.254Z,35.37
2018-05-10T00:27:02.438Z,27.33
2018-05-10T00:29:28.835Z,15.27
2018-05-10T00:31:55.254Z,11.30
2018-05-10T00:34:22.805Z,9.50
2018-05-10T00:36:49.208Z,36.30
2018-05-10T00:39:17.121Z,11.67
2018-05-10T00:41:43.595Z,10.50
2018-05-10T00:44:09.969Z,11.77
2018-05-10T00:46:37.148Z,10.20
2018-05-10T00:49:03.557Z,4.90
2018-05-10T00:51:30.715Z,10.17
2018-05-10T00:53:57.849Z,8.57
2018-05-10T00:56:24.313Z,9.30
2018-05-10T00:58:51.537Z,5.00
2018-05-10T01:01:17.966Z,17.87
2018-05-10T01:03:44.407Z,6.77
2018-05-10T01:06:10.820Z,7.63
2018-05-10T01:08:37.232Z,9.17
2018-05-10T01:11:03.674Z,8.63
2018-05-10T01:13:30.094Z,7.17
2018-05-10T01:15:56.518Z,6.63
2018-05-10T01:18:23.104Z,9.57
2018-05-10T01:20:49.517Z,8.93
2018-05-10T01:23:15.965Z,8.93
2018-05-10T01:25:42.379Z,6.20
2018-05-10T01:28:09.541Z,6.97
2018-05-10T01:30:35.998Z,20.30
2018-05-10T01:33:03.340Z,11.73
2018-05-10T01:35:41.949Z,8.80
2018-05-10T01:38:08.392Z,17.53
2018-05-10T01:40:34.777Z,12.97
2018-05-10T01:43:01.220Z,37.70
2018-05-10T01:45:27.642Z,15.57
2018-05-10T01:47:54.127Z,17.63
2018-05-10T01:50:22.019Z,23.93
2018-05-10T01:52:49.177Z,19.27
2018-05-10T01:55:15.763Z,24.93
2018-05-10T01:57:42.173Z,23.30
2018-05-10T02:00:08.663Z,16.57
2018-05-10T02:02:35.080Z,18.23
2018-05-10T02:05:01.474Z,14.40
2018-05-10T02:07:27.972Z,13.57
2018-05-10T02:09:54.342Z,16.40
2018-05-10T02:12:20.812Z,16.23
2018-05-10T02:14:47.240Z,13.80
2018-05-10T02:17:14.395Z,11.93
2018-05-10T02:19:40.809Z,20.10
2018-05-10T02:22:07.391Z,12.23
2018-05-10T02:24:34.534Z,17.40
2018-05-10T02:27:01.775Z,11.10
2018-05-10T02:29:28.303Z,13.53
2018-05-10T02:31:54.841Z,15.10
2018-05-10T02:34:22.030Z,11.67
2018-05-10T02:36:48.488Z,12.63
2018-05-10T02:39:14.900Z,19.00
2018-05-10T02:41:41.390Z,14.30
2018-05-10T02:44:07.819Z,14.90
2018-05-10T02:46:34.970Z,18.73
2018-05-10T02:49:01.411Z,14.37
2018-05-10T02:51:28.612Z,16.43
2018-05-10T02:53:55.059Z,21.13
2018-05-10T02:56:21.526Z,13.93
2018-05-10T02:58:47.947Z,19.00
2018-05-10T03:01:14.421Z,13.10
2018-05-10T03:03:41.583Z,13.00
2018-05-10T03:06:08.027Z,11.70
2018-05-10T03:08:34.434Z,15.23
2018-05-10T03:11:01.584Z,12.20
2018-05-10T03:13:28.750Z,34.77
2018-05-10T03:15:55.146Z,33.10
2018-05-10T03:18:21.545Z,25.77
2018-05-10T03:20:47.953Z,25.40
2018-05-10T03:23:14.348Z,25.33
2018-05-10T03:25:41.538Z,16.70
2018-05-10T03:28:09.252Z,17.87
2018-05-10T03:30:35.673Z,22.57
2018-05-10T03:33:02.939Z,19.00
2018-05-10T03:35:29.359Z,21.50
2018-05-10T03:37:55.753Z,23.50
2018-05-10T03:40:22.206Z,25.43
2018-05-10T03:42:48.657Z,22.97
2018-05-10T03:45:15.208Z,19.23
2018-05-10T03:47:41.596Z,16.43
2018-05-10T03:50:08.046Z,19.50
2018-05-10T03:52:34.431Z,23.67
2018-05-10T03:55:01.581Z,19.83
2018-05-10T03:57:28.777Z,13.70
2018-05-10T03:59:55.170Z,14.30
2018-05-10T04:02:34.581Z,13.63
2018-05-10T04:05:13.429Z,16.83
2018-05-10T04:07:52.765Z,14.63
2018-05-10T04:10:31.360Z,14.73
2018-05-10T04:12:57.788Z,12.57
2018-05-10T04:15:24.220Z,15.10
2018-05-10T04:17:50.592Z,22.10
2018-05-10T04:20:17.010Z,17.80
2018-05-10T04:22:44.149Z,20.33
2018-05-10T04:25:11.314Z,16.93
2018-05-10T04:27:37.754Z,15.97
2018-05-10T04:30:04.192Z,18.37
2018-05-10T04:32:30.601Z,16.53
2018-05-10T04:34:57.791Z,18.20
2018-05-10T04:37:24.231Z,18.50
2018-05-10T04:39:50.643Z,17.90
2018-05-10T04:42:17.922Z,18.00
2018-05-10T04:44:44.317Z,21.13
2018-05-10T04:47:11.458Z,22.53
2018-05-10T04:49:38.630Z,15.80
2018-05-10T04:52:05.122Z,12.03
2018-05-10T04:54:31.490Z,16.77
2018-05-10T04:56:57.915Z,19.03
2018-05-10T04:59:24.399Z,16.80
2018-05-10T05:01:51.498Z,14.20
2018-05-10T05:04:17.921Z,16.53
2018-05-10T05:06:45.041Z,14.40
2018-05-10T05:09:12.233Z,14.43
2018-05-10T05:11:39.428Z,14.60
2018-05-10T05:14:05.888Z,18.23
2018-05-10T05:16:32.271Z,17.73
2018-05-10T05:18:58.706Z,23.57
2018-05-10T05:21:25.301Z,20.97
2018-05-10T05:23:51.677Z,23.63
2018-05-10T05:26:18.132Z,26.93
2018-05-10T05:28:44.523Z,29.77
2018-05-10T05:31:11.618Z,30.50
2018-05-10T05:33:38.053Z,40.57
2018-05-10T05:36:04.523Z,37.07
2018-05-10T05:38:31.683Z,37.57
2018-05-10T05:40:58.170Z,39.83
2018-05-10T05:43:24.586Z,39.60
2018-05-10T05:45:50.993Z,46.33
2018-05-10T05:48:17.402Z,40.53
2018-05-10T05:50:43.821Z,38.83
2018-05-10T05:53:10.226Z,43.93
2018-05-10T05:55:36.673Z,50.50
2018-05-10T05:58:03.829Z,61.47
2018-05-10T06:00:30.227Z,44.30
2018-05-10T06:02:56.617Z,59.03
2018-05-10T06:05:23.027Z,56.93
2018-05-10T06:07:50.888Z,56.50
2018-05-10T06:10:17.432Z,50.33
2018-05-10T06:12:43.793Z,56.30
2018-05-10T06:15:10.926Z,50.33
2018-05-10T06:17:38.098Z,57.70
2018-05-10T06:20:04.588Z,56.00
2018-05-10T06:22:31.034Z,55.27
2018-05-10T06:24:58.316Z,56.83
2018-05-10T06:27:24.668Z,53.57
2018-05-10T06:29:51.081Z,57.40
2018-05-10T06:32:17.624Z,56.30
2018-05-10T06:34:44.074Z,56.57
2018-05-10T06:37:10.474Z,65.23
2018-05-10T06:39:37.805Z,60.50
2018-05-10T06:42:04.262Z,58.67
2018-05-10T06:44:31.413Z,62.80
2018-05-10T06:46:58.617Z,63.70
2018-05-10T06:49:25.023Z,84.27
2018-05-10T06:51:51.448Z,62.60
2018-05-10T06:54:18.608Z,61.90
2018-05-10T06:56:45.010Z,74.73
2018-05-10T06:59:12.153Z,68.10
2018-05-10T07:01:38.593Z,71.70
2018-05-10T07:04:05.776Z,68.43
2018-05-10T07:06:32.187Z,62.87
2018-05-10T07:08:58.598Z,66.93
2018-05-10T07:11:25.015Z,67.87
2018-05-10T07:13:51.515Z,77.20
2018-05-10T07:16:17.954Z,64.40
2018-05-10T07:18:44.349Z,75.07
2018-05-10T07:21:11.518Z,74.30
2018-05-10T07:23:37.963Z,74.80
2018-05-10T07:26:04.447Z,50.53
2018-05-10T07:28:30.889Z,52.93
2018-05-10T07:30:57.287Z,52.17
2018-05-10T07:33:23.712Z,49.90
2018-05-10T07:35:50.110Z,52.30
2018-05-10T07:38:16.610Z,48.10
2018-05-10T07:40:43.774Z,44.47
2018-05-10T07:43:11.010Z,51.93
2018-05-10T07:45:37.477Z,46.07
2018-05-10T07:48:03.978Z,48.97
2018-05-10T07:50:30.466Z,45.10
2018-05-10T07:52:56.916Z,47.03
2018-05-10T07:55:23.313Z,48.40
2018-05-10T07:57:49.703Z,51.60
2018-05-10T08:00:16.150Z,46.20
2018-05-10T08:02:43.338Z,51.90
2018-05-10T08:05:09.933Z,45.03
2018-05-10T08:07:36.372Z,45.83
2018-05-10T08:10:03.669Z,40.47
2018-05-10T08:12:30.481Z,45.70
2018-05-10T08:14:56.987Z,41.83
2018-05-10T08:17:23.502Z,42.97
2018-05-10T08:19:49.901Z,47.50
2018-05-10T08:22:16.464Z,40.67
2018-05-10T08:24:42.937Z,45.87
2018-05-10T08:27:09.526Z,38.83
2018-05-10T08:29:36.221Z,40.00
2018-05-10T08:32:03.421Z,43.87
2018-05-10T08:34:29.970Z,41.03
2018-05-10T08:36:56.535Z,41.30
2018-05-10T08:39:23.213Z,42.57
2018-05-10T08:41:49.749Z,44.50
2018-05-10T08:44:16.254Z,41.17
2018-05-10T08:46:43.422Z,39.43
2018-05-10T08:49:09.887Z,41.10
2018-05-10T08:51:36.530Z,40.37
2018-05-10T08:54:02.971Z,38.97
2018-05-10T08:56:30.305Z,43.60
2018-05-10T08:58:57.813Z,38.63
2018-05-10T09:01:25.029Z,45.77
2018-05-10T09:03:51.508Z,40.70
2018-05-10T09:06:18.063Z,39.60
2018-05-10T09:08:44.638Z,53.97
2018-05-10T09:11:11.215Z,41.87
2018-05-10T09:13:38.410Z,39.10
2018-05-10T09:16:05.552Z,39.17
2018-05-10T09:18:32.114Z,38.50
2018-05-10T09:20:59.400Z,38.47
2018-05-10T09:23:26.611Z,37.00
2018-05-10T09:25:53.039Z,40.70
2018-05-10T09:28:19.549Z,42.50
2018-05-10T09:30:46.701Z,38.17
2018-05-10T09:33:13.852Z,38.17
2018-05-10T09:35:41.049Z,33.97
2018-05-10T09:38:07.632Z,31.57
2018-05-10T09:40:34.129Z,28.80
2018-05-10T09:43:00.872Z,29.53
2018-05-10T09:45:27.482Z,30.60
2018-05-10T09:47:53.954Z,24.50
2018-05-10T09:50:21.199Z,25.90
2018-05-10T09:52:48.957Z,30.83
2018-05-10T09:55:15.509Z,31.87
2018-05-10T09:57:42.043Z,34.80
2018-05-10T10:00:08.622Z,32.73
2018-05-10T10:02:35.032Z,30.83
2018-05-10T10:05:01.525Z,33.00
2018-05-10T10:07:27.970Z,36.17
2018-05-10T10:09:54.468Z,32.83
2018-05-10T10:12:20.964Z,33.00
2018-05-10T10:14:47.565Z,31.10
2018-05-10T10:17:14.088Z,29.80
2018-05-10T10:19:40.552Z,30.47
2018-05-10T10:22:08.117Z,28.40
2018-05-10T10:24:35.321Z,25.97
2018-05-10T10:27:01.904Z,27.23
2018-05-10T10:29:28.447Z,27.47
2018-05-10T10:31:55.664Z,28.40
2018-05-10T10:34:22.185Z,28.53
2018-05-10T10:36:48.638Z,26.13
2018-05-10T10:39:15.156Z,25.63
2018-05-10T10:41:41.684Z,24.83
2018-05-10T10:44:08.216Z,25.77
2018-05-10T10:46:35.483Z,27.27
2018-05-10T10:49:01.959Z,26.00
2018-05-10T10:51:28.424Z,25.30
2018-05-10T10:53:55.102Z,22.20
2018-05-10T10:56:21.558Z,21.90
2018-05-10T10:58:47.998Z,22.63
2018-05-10T11:01:15.226Z,23.20
2018-05-10T11:03:42.500Z,23.40
2018-05-10T11:06:09.702Z,23.13
2018-05-10T11:08:36.182Z,26.13
2018-05-10T11:11:03.374Z,21.47
2018-05-10T11:13:29.780Z,23.00
2018-05-10T11:15:56.961Z,21.80
2018-05-10T11:18:23.419Z,20.27
2018-05-10T11:20:49.879Z,17.97
2018-05-10T11:23:16.293Z,18.27
2018-05-10T11:25:43.569Z,22.37
2018-05-10T11:28:10.013Z,17.63
2018-05-10T11:30:36.448Z,21.77
2018-05-10T11:33:02.890Z,24.37
2018-05-10T11:35:29.406Z,20.10
2018-05-10T11:37:56.584Z,21.40
2018-05-10T11:40:23.076Z,22.37
2018-05-10T11:42:50.982Z,20.13
2018-05-10T11:45:17.492Z,19.33
2018-05-10T11:47:43.979Z,19.93
2018-05-10T11:50:10.418Z,22.07
2018-05-10T11:52:36.899Z,19.40
2018-05-10T11:55:03.743Z,18.53
2018-05-10T11:57:30.921Z,18.80
2018-05-10T11:59:57.393Z,19.90
2018-05-10T12:02:23.795Z,17.70
2018-05-10T12:04:50.257Z,22.53
2018-05-10T12:07:16.653Z,23.33
2018-05-10T12:09:43.815Z,22.33
2018-05-10T12:12:10.215Z,20.50
2018-05-10T12:14:37.391Z,24.20
2018-05-10T12:17:03.853Z,27.50
2018-05-10T12:19:30.290Z,22.20
2018-05-10T12:21:56.737Z,29.13
2018-05-10T12:24:23.216Z,17.50
2018-05-10T12:26:49.650Z,17.17
2018-05-10T12:29:16.096Z,18.97
2018-05-10T12:31:44.086Z,18.37
2018-05-10T12:34:10.540Z,16.40
2018-05-10T12:36:37.013Z,19.97
2018-05-10T12:39:04.233Z,23.23
2018-05-10T12:41:30.797Z,19.80
2018-05-10T12:43:57.163Z,19.50
2018-05-10T12:46:23.626Z,18.10
2018-05-10T12:48:50.092Z,17.43
2018-05-10T12:51:17.310Z,23.87
2018-05-10T12:53:43.866Z,24.93
2018-05-10T12:56:10.447Z,27.90
2018-05-10T12:58:36.787Z,26.80
2018-05-10T13:01:03.230Z,31.73
2018-05-10T13:03:29.708Z,36.93
2018-05-10T13:05:56.093Z,31.17
2018-05-10T13:08:22.673Z,30.20
2018-05-10T13:10:49.103Z,33.97
2018-05-10T13:13:16.421Z,37.10
2018-05-10T13:15:42.916Z,38.30
2018-05-10T13:18:10.019Z,35.80
2018-05-10T13:20:36.679Z,30.83
2018-05-10T13:23:03.276Z,37.83
2018-05-10T13:25:29.824Z,32.23
2018-05-10T13:27:56.266Z,37.37
2018-05-10T13:30:22.802Z,28.80
2018-05-10T13:32:49.378Z,31.07
2018-05-10T13:35:16.161Z,31.50
2018-05-10T13:37:42.690Z,30.47
2018-05-10T13:40:09.949Z,37.67
2018-05-10T13:42:36.421Z,37.70
2018-05-10T13:45:03.026Z,35.10
2018-05-10T13:47:30.524Z,31.20
2018-05-10T13:49:57.026Z,32.63
2018-05-10T13:52:24.268Z,28.90
2018-05-10T13:54:50.724Z,29.60
2018-05-10T13:57:17.151Z,25.30
2018-05-10T13:59:43.659Z,31.60
2018-05-10T14:02:10.108Z,22.63
2018-05-10T14:04:36.748Z,23.60
2018-05-10T14:07:03.316Z,23.77
2018-05-10T14:09:30.550Z,18.60
2018-05-10T14:11:58.544Z,19.97
2018-05-10T14:14:25.054Z,20.80
2018-05-10T14:16:52.276Z,24.43
2018-05-10T14:19:18.734Z,23.23
2018-05-10T14:21:45.261Z,18.40
2018-05-10T14:24:11.829Z,17.70
2018-05-10T14:26:38.404Z,19.63
2018-05-10T14:29:04.834Z,15.63
2018-05-10T14:31:31.307Z,17.20
2018-05-10T14:33:57.766Z,12.90
2018-05-10T14:36:24.295Z,13.10
2018-05-10T14:38:50.801Z,9.93
2018-05-10T14:41:17.336Z,13.20
2018-05-10T14:43:44.078Z,12.10
2018-05-10T14:46:10.629Z,11.27
2018-05-10T14:48:37.118Z,34.73
2018-05-10T14:51:03.597Z,8.73
2018-05-10T14:53:30.917Z,8.60
2018-05-10T14:55:57.403Z,24.20
2018-05-10T14:58:24.614Z,11.97
2018-05-10T15:00:51.109Z,15.93
2018-05-10T15:03:19.021Z,10.70
2018-05-10T15:05:45.520Z,18.70
2018-05-10T15:08:12.034Z,15.13
2018-05-10T15:10:38.477Z,15.77
2018-05-10T15:13:04.926Z,13.73
2018-05-10T15:15:32.367Z,13.27
2018-05-10T15:17:59.506Z,13.37
2018-05-10T15:20:25.925Z,14.57
2018-05-10T15:22:52.372Z,12.27
2018-05-10T15:25:19.632Z,16.47
2018-05-10T15:27:46.901Z,11.70
2018-05-10T15:30:13.312Z,25.27
2018-05-10T15:32:40.493Z,11.90
2018-05-10T15:35:07.943Z,21.70
2018-05-10T15:37:34.376Z,11.90
2018-05-10T15:40:00.884Z,15.67
2018-05-10T15:42:27.351Z,14.77
2018-05-10T15:44:53.822Z,18.23
2018-05-10T15:47:20.284Z,18.40
2018-05-10T15:49:47.452Z,14.20
2018-05-10T15:52:13.886Z,12.67
2018-05-10T15:54:40.364Z,10.90
2018-05-10T15:57:06.819Z,14.27
2018-05-10T15:59:33.267Z,17.70
2018-05-10T16:01:59.683Z,13.33
2018-05-10T16:04:26.199Z,14.50
2018-05-10T16:06:52.637Z,17.20
2018-05-10T16:09:19.252Z,15.27
2018-05-10T16:11:46.539Z,15.73
2018-05-10T16:14:12.961Z,18.63
2018-05-10T16:16:39.428Z,19.70
2018-05-10T16:19:06.703Z,14.70
2018-05-10T16:21:33.148Z,24.43
2018-05-10T16:23:59.582Z,19.20
2018-05-10T16:26:26.127Z,15.90
2018-05-10T16:28:52.582Z,18.40
2018-05-10T16:31:19.001Z,20.60
2018-05-10T16:33:45.688Z,16.37
2018-05-10T16:36:12.138Z,16.20
2018-05-10T16:38:39.273Z,18.20
2018-05-10T16:41:05.758Z,19.00
2018-05-10T16:43:32.224Z,23.30
2018-05-10T16:45:58.654Z,25.33
2018-05-10T16:48:25.134Z,25.27
2018-05-10T16:50:52.278Z,23.83
2018-05-10T16:53:19.691Z,20.00
2018-05-10T16:55:46.890Z,23.40
2018-05-10T16:58:13.442Z,19.70
2018-05-10T17:00:39.854Z,24.60
2018-05-10T17:03:06.301Z,20.67
2018-05-10T17:05:33.543Z,24.80
2018-05-10T17:07:59.962Z,24.60
2018-05-10T17:10:27.186Z,20.73
2018-05-10T17:12:53.691Z,25.77
2018-05-10T17:15:20.153Z,21.10
2018-05-10T17:17:46.678Z,26.40
2018-05-10T17:20:13.218Z,24.10
2018-05-10T17:22:39.672Z,18.50
2018-05-10T17:25:06.199Z,26.97
2018-05-10T17:27:32.751Z,21.93
2018-05-10T17:29:59.285Z,22.60
2018-05-10T17:32:26.463Z,26.63
2018-05-10T17:34:52.957Z,29.77
2018-05-10T17:37:19.409Z,21.00
2018-05-10T17:39:45.856Z,25.70
2018-05-10T17:42:13.089Z,21.43
2018-05-10T17:44:39.545Z,24.27
2018-05-10T17:47:06.140Z,23.60
2018-05-10T17:49:32.656Z,27.60
2018-05-10T17:51:59.182Z,26.27
2018-05-10T17:54:25.714Z,19.90
2018-05-10T17:56:52.125Z,27.37
2018-05-10T17:59:18.655Z,26.80
2018-05-10T18:01:45.289Z,27.27
2018-05-10T18:04:13.559Z,27.43
2018-05-10T18:06:41.442Z,25.83
2018-05-10T18:09:07.941Z,22.37
2018-05-10T18:11:34.399Z,23.50
2018-05-10T18:14:01.584Z,24.67
2018-05-10T18:16:28.143Z,35.70
2018-05-10T18:18:54.707Z,21.70
2018-05-10T18:21:21.867Z,28.23
2018-05-10T18:23:49.049Z,21.33
2018-05-10T18:26:15.507Z,23.83
2018-05-10T18:28:42.011Z,26.07
2018-05-10T18:31:08.521Z,53.23
2018-05-10T18:33:34.948Z,31.33
2018-05-10T18:36:01.538Z,24.77
2018-05-10T18:38:28.082Z,26.97
2018-05-10T18:40:54.651Z,21.83
2018-05-10T18:43:21.854Z,18.07
2018-05-10T18:45:48.365Z,17.10
2018-05-10T18:48:14.902Z,29.23
2018-05-10T18:50:42.072Z,27.00
2018-05-10T18:53:08.630Z,30.83
2018-05-10T18:55:35.139Z,22.90
2018-05-10T18:58:01.711Z,24.27
2018-05-10T19:00:28.197Z,27.17
2018-05-10T19:02:55.649Z,29.47
2018-05-10T19:05:22.260Z,24.53
2018-05-10T19:07:48.806Z,21.57
2018-05-10T19:10:15.313Z,24.63
2018-05-10T19:12:41.791Z,24.53
2018-05-10T19:15:09.020Z,26.63
2018-05-10T19:17:35.612Z,30.90
2018-05-10T19:20:02.187Z,22.50
2018-05-10T19:22:29.457Z,24.27
2018-05-10T19:24:56.605Z,17.30
2018-05-10T19:27:23.097Z,28.47
2018-05-10T19:29:49.750Z,22.60
2018-05-10T19:32:16.389Z,26.70
2018-05-10T19:34:42.912Z,23.70
2018-05-10T19:37:09.346Z,21.03
2018-05-10T19:39:35.830Z,24.50
2018-05-10T19:42:02.338Z,20.20
2018-05-10T19:44:28.818Z,17.20
2018-05-10T19:46:55.320Z,17.07
2018-05-10T19:49:21.810Z,15.53
2018-05-10T19:51:48.418Z,19.23
2018-05-10T19:54:15.270Z,21.77
2018-05-10T19:56:41.957Z,21.37
2018-05-10T19:59:08.484Z,17.70
2018-05-10T20:01:34.979Z,15.03
2018-05-10T20:04:01.484Z,19.57
2018-05-10T20:06:28.119Z,21.00
2018-05-10T20:08:56.276Z,17.40
2018-05-10T20:11:23.527Z,20.00
2018-05-10T20:13:50.113Z,15.70
2018-05-10T20:16:16.613Z,13.83
2018-05-10T20:18:44.059Z,16.10
2018-05-10T20:21:10.533Z,22.87
2018-05-10T20:23:37.025Z,16.93
2018-05-10T20:26:04.278Z,16.90
2018-05-10T20:28:30.833Z,15.43
2018-05-10T20:30:57.296Z,13.67
2018-05-10T20:33:23.973Z,17.10
2018-05-10T20:35:50.384Z,20.93
2018-05-10T20:38:16.927Z,16.30
2018-05-10T20:40:43.503Z,19.50
2018-05-10T20:43:10.766Z,19.67
2018-05-10T20:45:37.177Z,17.30
2018-05-10T20:48:04.383Z,18.57
2018-05-10T20:50:31.657Z,17.93
2018-05-10T20:52:58.819Z,21.20
2018-05-10T20:55:26.198Z,16.00
2018-05-10T20:57:53.442Z,18.47
2018-05-10T21:00:19.972Z,13.63
2018-05-10T21:02:46.420Z,39.17
2018-05-10T21:05:12.863Z,21.47
2018-05-10T21:07:40.294Z,15.13
2018-05-10T21:10:07.580Z,19.50
2018-05-10T21:12:41.116Z,17.10
2018-05-10T21:15:08.692Z,17.63
2018-05-10T21:17:35.142Z,18.17
2018-05-10T21:20:02.828Z,16.13
2018-05-10T21:22:30.267Z,19.17
2018-05-10T21:24:56.718Z,16.70
2018-05-10T21:27:23.328Z,19.13
2018-05-10T21:29:50.032Z,19.27
2018-05-10T21:32:16.495Z,19.97
2018-05-10T21:34:43.876Z,16.87
2018-05-10T21:37:10.565Z,12.93
2018-05-10T21:39:36.969Z,20.40
2018-05-10T21:42:03.576Z,17.20
2018-05-10T21:44:30.011Z,16.53
2018-05-10T21:46:56.443Z,12.83
2018-05-10T21:49:36.029Z,12.80
2018-05-10T21:52:02.636Z,15.53
2018-05-10T21:54:29.876Z,16.67
2018-05-10T21:56:57.119Z,22.30
2018-05-10T21:59:23.715Z,16.47
2018-05-10T22:01:50.214Z,16.53
2018-05-10T22:04:16.939Z,15.43
2018-05-10T22:06:43.513Z,17.20
2018-05-10T22:09:10.068Z,18.43
2018-05-10T22:11:37.253Z,15.60
2018-05-10T22:14:03.777Z,13.87
2018-05-10T22:16:30.182Z,14.40
2018-05-10T22:18:56.629Z,12.43
2018-05-10T22:21:23.090Z,19.40
2018-05-10T22:23:49.524Z,19.83
2018-05-10T22:26:16.714Z,17.57
2018-05-10T22:28:43.126Z,15.83
2018-05-10T22:31:09.568Z,16.50
2018-05-10T22:33:36.777Z,19.37
2018-05-10T22:36:03.188Z,17.70
2018-05-10T22:38:29.602Z,15.73
2018-05-10T22:40:56.909Z,15.30
2018-05-10T22:43:23.334Z,20.20
2018-05-10T22:45:49.878Z,19.20
2018-05-10T22:48:16.681Z,20.40
2018-05-10T22:50:43.111Z,16.10
2018-05-10T22:53:09.533Z,15.17
2018-05-10T22:55:35.963Z,14.30
2018-05-10T22:58:02.398Z,21.20
2018-05-10T23:00:28.800Z,16.57
2018-05-10T23:02:55.214Z,26.43
2018-05-10T23:05:22.358Z,23.33
2018-05-10T23:07:48.793Z,16.20
2018-05-10T23:10:15.230Z,26.57
2018-05-10T23:12:41.781Z,16.27
2018-05-10T23:15:08.327Z,21.67
2018-05-10T23:17:35.568Z,24.27
2018-05-10T23:20:02.021Z,20.20
2018-05-10T23:22:29.141Z,20.60
2018-05-10T23:24:55.584Z,14.33
2018-05-10T23:27:22.014Z,18.80
2018-05-10T23:29:48.456Z,19.40
2018-05-10T23:32:15.798Z,24.70
2018-05-10T23:34:42.986Z,22.20
2018-05-10T23:37:09.461Z,19.80
2018-05-10T23:39:35.884Z,20.63
2018-05-10T23:42:02.371Z,20.30
2018-05-10T23:44:29.563Z,23.10
2018-05-10T23:46:55.989Z,20.30
2018-05-10T23:49:22.430Z,21.10
2018-05-10T23:51:48.856Z,23.67
2018-05-10T23:54:15.280Z,19.17
2018-05-10T23:56:41.774Z,19.00
2018-05-10T23:59:08.194Z,21.60
